This is the latest recevied weather packets stored in our database for station/object OH5GWF-1. If no packets are shown the sender has not sent any weather packets the latest 10 day(s).
| Time | Temp. | Humidity | Pressure | Rain* | Wind** | Luminosity | Snow |
|---|---|---|---|---|---|---|---|
| 1778083512 | 10° C | 32% | 1013.1 hPa | 0 mm | - | - | - |
| 1778083090 | 10° C | 32% | 1013 hPa | 0 mm | - | - | - |
| 1778082669 | 10° C | 32% | 1013 hPa | 0 mm | - | - | - |
| 1778082247 | 10° C | 32% | 1013 hPa | 0 mm | - | - | - |
| 1778081823 | 10° C | 31% | 1013.1 hPa | 0 mm | - | - | - |
| 1778081401 | 10° C | 31% | 1013.2 hPa | 0 mm | - | - | - |
| 1778080992 | 10° C | 32% | 1013.2 hPa | 0 mm | - | - | - |
| 1778080569 | 10° C | 32% | 1013.1 hPa | 0 mm | - | - | - |
| 1778080148 | 10° C | 31% | 1013.1 hPa | 0 mm | - | - | - |
| 1778079726 | 10.56° C | 30% | 1013.2 hPa | 0 mm | - | - | - |
| 1778079304 | 11.67° C | 30% | 1013.1 hPa | 0 mm | - | - | - |
| 1778078882 | 13.33° C | 28% | 1013.1 hPa | 0 mm | - | - | - |
| 1778078471 | 15.56° C | 28% | 1013.1 hPa | 0 mm | - | - | - |
| 1778078050 | 13.89° C | 28% | 1013 hPa | 0 mm | - | - | - |
| 1778077629 | 13.89° C | 28% | 1013.1 hPa | 0 mm | - | - | - |
| 1778077206 | 15° C | 27% | 1013 hPa | 0 mm | - | - | - |
| 1778076785 | 20° C | 25% | 1012.9 hPa | 0 mm | - | - | - |
| 1778076364 | 19.44° C | 26% | 1012.9 hPa | 0 mm | - | - | - |
| 1778075941 | 18.89° C | 25% | 1012.7 hPa | 0 mm | - | - | - |
| 1778075531 | 19.44° C | 26% | 1012.8 hPa | 0 mm | - | - | - |
| 1778075109 | 16.11° C | 29% | 1012.7 hPa | 0 mm | - | - | - |
| 1778074686 | 12.78° C | 31% | 1012.8 hPa | 0 mm | - | - | - |
| 1778074264 | 12.78° C | 30% | 1012.8 hPa | 0 mm | - | - | - |
| 1778073842 | 11.67° C | 31% | 1012.9 hPa | 0 mm | - | - | - |
| 1778073432 | 11.67° C | 33% | 1012.8 hPa | 0 mm | - | - | - |
* Rain latest hour (hover to see other rain measurements)
** Current wind speed in m/s (hover to see current wind gust speed)